createdAt,value
2022-11-18T00:01:21.680Z,9.45
2022-11-18T00:03:49.495Z,9.41
2022-11-18T00:06:20.173Z,9.40
2022-11-18T00:08:47.942Z,9.37
2022-11-18T00:11:40.537Z,9.36
2022-11-18T00:14:22.142Z,9.35
2022-11-18T00:16:53.643Z,9.33
2022-11-18T00:19:24.193Z,9.33
2022-11-18T00:21:51.148Z,9.33
2022-11-18T00:24:18.169Z,9.32
2022-11-18T00:26:45.119Z,9.32
2022-11-18T00:29:12.331Z,9.31
2022-11-18T00:31:39.549Z,9.31
2022-11-18T00:34:06.808Z,9.32
2022-11-18T00:36:34.023Z,9.31
2022-11-18T00:39:00.798Z,9.30
2022-11-18T00:41:47.556Z,9.31
2022-11-18T00:44:14.378Z,9.31
2022-11-18T00:46:41.745Z,9.32
2022-11-18T00:49:09.758Z,9.33
2022-11-18T00:51:36.951Z,9.30
2022-11-18T00:54:04.179Z,9.27
2022-11-18T00:56:31.138Z,9.25
2022-11-18T00:58:58.080Z,9.26
2022-11-18T01:01:25.682Z,9.26
2022-11-18T01:03:52.581Z,9.26
2022-11-18T01:06:19.459Z,9.26
2022-11-18T01:08:46.246Z,9.27
2022-11-18T01:11:31.483Z,9.26
2022-11-18T01:13:58.437Z,9.23
2022-11-18T01:16:27.778Z,9.22
2022-11-18T01:18:55.098Z,9.18
2022-11-18T01:21:22.068Z,9.16
2022-11-18T01:23:49.112Z,9.16
2022-11-18T01:26:17.397Z,9.17
2022-11-18T01:28:45.237Z,9.16
2022-11-18T01:31:18.959Z,9.15
2022-11-18T01:33:46.601Z,9.13
2022-11-18T01:36:22.640Z,9.13
2022-11-18T01:38:50.563Z,9.13
2022-11-18T01:41:24.838Z,9.13
2022-11-18T01:44:00.380Z,9.14
2022-11-18T01:46:30.973Z,9.14
2022-11-18T01:49:12.088Z,9.13
2022-11-18T01:51:53.528Z,9.10
2022-11-18T01:54:29.954Z,9.11
2022-11-18T01:57:00.907Z,9.09
2022-11-18T01:59:34.855Z,9.07
2022-11-18T02:02:06.480Z,9.05
2022-11-18T02:04:33.976Z,9.04
2022-11-18T02:07:01.592Z,9.04
2022-11-18T02:09:28.479Z,9.05
2022-11-18T02:11:55.317Z,9.06
2022-11-18T02:14:32.640Z,9.06
2022-11-18T02:17:11.259Z,9.04
2022-11-18T02:19:50.916Z,9.05
2022-11-18T02:22:45.671Z,9.03
2022-11-18T02:25:24.580Z,9.01
2022-11-18T02:28:20.471Z,8.97
2022-11-18T02:31:02.986Z,8.96
2022-11-18T02:33:59.835Z,8.95
2022-11-18T02:36:40.218Z,8.94
2022-11-18T02:39:22.097Z,8.91
2022-11-18T02:41:50.968Z,8.90
2022-11-18T02:44:19.855Z,8.90
2022-11-18T02:46:53.219Z,8.91
2022-11-18T02:49:27.658Z,8.90
2022-11-18T02:51:56.485Z,8.89
2022-11-18T02:54:26.351Z,8.87
2022-11-18T02:56:54.397Z,8.85
2022-11-18T02:59:21.563Z,8.85
2022-11-18T03:01:48.446Z,8.85
2022-11-18T03:04:17.604Z,8.85
2022-11-18T03:07:08.011Z,8.86
2022-11-18T03:09:39.195Z,8.82
2022-11-18T03:12:30.866Z,8.78
2022-11-18T03:15:23.608Z,8.74
2022-11-18T03:18:20.179Z,8.71
2022-11-18T03:21:05.419Z,8.70
2022-11-18T03:23:58.090Z,8.70
2022-11-18T03:26:32.206Z,8.69
2022-11-18T03:29:10.910Z,8.63
2022-11-18T03:31:56.992Z,8.63
2022-11-18T03:34:47.001Z,8.61
2022-11-18T03:37:17.385Z,8.62
2022-11-18T03:39:52.493Z,8.63
2022-11-18T03:42:45.932Z,8.61
2022-11-18T03:45:25.712Z,8.62
2022-11-18T03:48:16.569Z,8.60
2022-11-18T03:51:07.319Z,8.57
2022-11-18T03:53:43.152Z,8.57
2022-11-18T03:56:20.116Z,8.57
2022-11-18T03:59:05.323Z,8.57
2022-11-18T04:01:52.955Z,8.55
2022-11-18T04:04:20.609Z,8.54
2022-11-18T04:07:28.029Z,8.54
2022-11-18T04:10:20.337Z,8.51
2022-11-18T04:13:12.668Z,8.51
2022-11-18T04:15:41.972Z,8.49
2022-11-18T04:18:10.099Z,8.47
2022-11-18T04:20:37.926Z,8.48
2022-11-18T04:23:06.487Z,8.47
2022-11-18T04:25:33.940Z,8.47
2022-11-18T04:28:00.828Z,8.47
2022-11-18T04:30:27.905Z,8.46
2022-11-18T04:32:54.703Z,8.46
2022-11-18T04:35:21.469Z,8.46
2022-11-18T04:37:48.222Z,8.49
2022-11-18T04:40:15.235Z,8.49
2022-11-18T04:42:42.013Z,8.49
2022-11-18T04:45:10.038Z,8.48
2022-11-18T04:47:37.235Z,8.45
2022-11-18T04:50:04.605Z,8.44
2022-11-18T04:52:31.420Z,8.42
2022-11-18T04:54:58.230Z,8.42
2022-11-18T04:57:24.980Z,8.43
2022-11-18T04:59:51.753Z,8.42
2022-11-18T05:02:18.521Z,8.42
2022-11-18T05:04:45.274Z,8.41
2022-11-18T05:07:16.236Z,8.41
2022-11-18T05:09:43.177Z,8.41
2022-11-18T05:12:32.871Z,8.40
2022-11-18T05:14:59.794Z,8.35
2022-11-18T05:17:26.766Z,8.32
2022-11-18T05:19:53.577Z,8.33
2022-11-18T05:22:20.407Z,8.36
2022-11-18T05:24:47.465Z,8.36
2022-11-18T05:27:15.099Z,8.34
2022-11-18T05:29:42.023Z,8.33
2022-11-18T05:32:09.215Z,8.33
2022-11-18T05:34:35.971Z,8.29
2022-11-18T05:37:02.798Z,8.25
2022-11-18T05:39:29.598Z,8.21
2022-11-18T05:42:14.620Z,8.20
2022-11-18T05:44:41.364Z,8.17
2022-11-18T05:47:08.400Z,8.16
2022-11-18T05:49:35.179Z,8.19
2022-11-18T05:52:02.014Z,8.17
2022-11-18T05:54:28.895Z,8.15
2022-11-18T05:56:55.913Z,8.14
2022-11-18T05:59:22.739Z,8.14
2022-11-18T06:01:59.659Z,8.14
2022-11-18T06:04:45.344Z,8.13
2022-11-18T06:07:19.018Z,8.12
2022-11-18T06:09:50.704Z,8.12
2022-11-18T06:12:22.648Z,8.09
2022-11-18T06:14:57.145Z,8.08
2022-11-18T06:17:35.691Z,8.05
2022-11-18T06:20:04.498Z,8.04
2022-11-18T06:22:31.476Z,8.04
2022-11-18T06:24:58.315Z,8.04
2022-11-18T06:27:25.091Z,8.03
2022-11-18T06:29:51.846Z,8.03
2022-11-18T06:32:18.635Z,8.02
2022-11-18T06:34:45.410Z,8.00
2022-11-18T06:37:18.297Z,8.01
2022-11-18T06:39:45.088Z,7.98
2022-11-18T06:42:32.124Z,8.00
2022-11-18T06:44:59.169Z,7.99
2022-11-18T06:47:25.949Z,7.97
2022-11-18T06:49:52.705Z,7.95
2022-11-18T06:52:19.481Z,7.91
2022-11-18T06:54:46.259Z,7.88
2022-11-18T06:57:13.015Z,7.87
2022-11-18T06:59:39.821Z,7.85
2022-11-18T07:02:06.803Z,7.86
2022-11-18T07:04:34.706Z,7.84
2022-11-18T07:07:01.511Z,7.82
2022-11-18T07:09:28.319Z,7.79
2022-11-18T07:11:55.095Z,7.78
2022-11-18T07:14:21.873Z,7.77
2022-11-18T07:16:48.669Z,7.77
2022-11-18T07:19:15.629Z,7.76
2022-11-18T07:21:43.338Z,7.74
2022-11-18T07:24:14.013Z,7.71
2022-11-18T07:26:41.670Z,7.66
2022-11-18T07:29:08.746Z,7.64
2022-11-18T07:31:39.947Z,7.66
2022-11-18T07:34:07.471Z,7.64
2022-11-18T07:36:36.169Z,7.65
2022-11-18T07:39:06.271Z,7.65
2022-11-18T07:41:33.700Z,7.62
2022-11-18T07:44:03.282Z,7.61
2022-11-18T07:46:37.620Z,7.61
2022-11-18T07:49:08.614Z,7.60
2022-11-18T07:51:38.561Z,7.60
2022-11-18T07:54:11.956Z,7.59
2022-11-18T07:56:39.436Z,7.62
2022-11-18T07:59:07.145Z,7.61
2022-11-18T08:01:34.230Z,7.61
2022-11-18T08:04:10.311Z,7.58
2022-11-18T08:06:37.751Z,7.56
2022-11-18T08:09:06.744Z,7.54
2022-11-18T08:11:33.603Z,7.52
2022-11-18T08:14:00.624Z,7.51
2022-11-18T08:16:28.028Z,7.49
2022-11-18T08:18:55.229Z,7.46
2022-11-18T08:21:23.125Z,7.45
2022-11-18T08:23:55.003Z,7.42
2022-11-18T08:26:22.389Z,7.41
2022-11-18T08:28:49.533Z,7.37
2022-11-18T08:31:24.712Z,7.36
2022-11-18T08:34:05.557Z,7.32
2022-11-18T08:36:35.920Z,7.30
2022-11-18T08:39:07.207Z,7.30
2022-11-18T08:41:43.166Z,7.27
2022-11-18T08:44:15.904Z,7.27
2022-11-18T08:46:45.599Z,7.26
2022-11-18T08:49:12.453Z,7.27
2022-11-18T08:51:39.228Z,7.27
2022-11-18T08:54:06.015Z,7.23
2022-11-18T08:56:32.802Z,7.20
2022-11-18T08:58:59.599Z,7.18
2022-11-18T09:01:26.507Z,7.16
2022-11-18T09:03:53.661Z,7.14
2022-11-18T09:06:24.148Z,7.12
2022-11-18T09:08:51.110Z,7.12
2022-11-18T09:11:24.155Z,7.11
2022-11-18T09:16:46.196Z,7.07
2022-11-18T09:22:01.670Z,7.03
2022-11-18T09:24:28.440Z,7.03
2022-11-18T09:26:55.249Z,7.01
2022-11-18T09:29:25.880Z,7.00
2022-11-18T09:31:54.492Z,6.99
2022-11-18T09:34:22.817Z,6.98
2022-11-18T09:36:50.468Z,6.99
2022-11-18T09:39:17.436Z,7.02
2022-11-18T09:41:52.963Z,7.02
2022-11-18T09:45:00.528Z,7.02
2022-11-18T09:47:29.499Z,6.97
2022-11-18T09:50:15.159Z,7.00
2022-11-18T09:52:55.807Z,7.02
2022-11-18T09:55:23.092Z,7.02
2022-11-18T09:57:54.452Z,7.01
2022-11-18T10:00:27.982Z,7.01
2022-11-18T10:03:04.953Z,7.00
2022-11-18T10:05:39.149Z,6.97
2022-11-18T10:08:18.198Z,6.92
2022-11-18T10:11:10.379Z,6.89
2022-11-18T10:14:08.364Z,6.84
2022-11-18T10:17:03.700Z,6.84
2022-11-18T10:19:40.739Z,6.84
2022-11-18T10:22:30.929Z,6.84
2022-11-18T10:25:00.735Z,6.84
2022-11-18T10:27:40.022Z,6.86
2022-11-18T10:30:24.556Z,6.82
2022-11-18T10:33:01.494Z,6.80
2022-11-18T10:35:39.053Z,6.75
2022-11-18T10:38:15.025Z,6.73
2022-11-18T10:41:00.667Z,6.71
2022-11-18T10:43:54.831Z,6.71
2022-11-18T10:46:34.473Z,6.72
2022-11-18T10:49:10.487Z,6.74
2022-11-18T10:51:39.493Z,6.74
2022-11-18T10:54:22.968Z,6.76
2022-11-18T10:57:03.381Z,6.77
2022-11-18T10:59:40.187Z,6.82
2022-11-18T11:02:22.571Z,6.83
2022-11-18T11:04:51.532Z,6.83
2022-11-18T11:07:39.978Z,6.84
2022-11-18T11:10:07.017Z,6.84
2022-11-18T11:12:48.215Z,6.87
2022-11-18T11:15:36.691Z,6.88
2022-11-18T11:18:31.631Z,6.88
2022-11-18T11:20:58.499Z,6.84
2022-11-18T11:23:26.012Z,6.82
2022-11-18T11:29:36.055Z,6.78
2022-11-18T11:32:55.846Z,6.78
2022-11-18T11:35:29.942Z,6.78
2022-11-18T11:38:01.684Z,6.73
2022-11-18T11:40:54.247Z,6.74
2022-11-18T11:43:39.546Z,6.75
2022-11-18T11:46:28.090Z,6.76
2022-11-18T11:49:17.219Z,6.76
2022-11-18T11:52:22.800Z,6.72
2022-11-18T11:55:12.791Z,6.71
2022-11-18T11:57:58.130Z,6.69
2022-11-18T12:00:25.005Z,6.68
2022-11-18T12:03:32.023Z,6.70
2022-11-18T12:05:58.774Z,6.67
2022-11-18T12:08:30.497Z,6.66
2022-11-18T12:11:31.655Z,6.67
2022-11-18T12:14:03.977Z,6.69
2022-11-18T12:16:57.452Z,6.67
2022-11-18T12:19:24.725Z,6.70
2022-11-18T12:22:04.874Z,6.69
2022-11-18T12:24:42.372Z,6.67
2022-11-18T12:27:39.836Z,6.65
2022-11-18T12:30:19.164Z,6.62
2022-11-18T12:32:46.877Z,6.60
2022-11-18T12:35:13.814Z,6.62
2022-11-18T12:37:44.151Z,6.63
2022-11-18T12:40:48.805Z,6.63
2022-11-18T12:43:49.460Z,6.63
2022-11-18T12:46:35.220Z,6.65
2022-11-18T12:49:34.219Z,6.66
2022-11-18T12:52:34.551Z,6.67
2022-11-18T12:55:18.288Z,6.69
2022-11-18T12:57:52.261Z,6.70
2022-11-18T13:00:25.722Z,6.71
2022-11-18T13:02:59.376Z,6.71
2022-11-18T13:05:33.381Z,6.70
2022-11-18T13:08:14.784Z,6.70
2022-11-18T13:10:51.772Z,6.67
2022-11-18T13:13:31.065Z,6.66
2022-11-18T13:16:38.315Z,6.64
2022-11-18T13:19:05.695Z,6.60
2022-11-18T13:21:50.820Z,6.57
2022-11-18T13:24:21.734Z,6.55
2022-11-18T13:26:57.727Z,6.54
2022-11-18T13:29:55.594Z,6.52
2022-11-18T13:32:28.350Z,6.52
2022-11-18T13:35:12.340Z,6.51
2022-11-18T13:38:00.286Z,6.51
2022-11-18T13:41:04.337Z,6.50
2022-11-18T13:43:33.051Z,6.49
2022-11-18T13:46:21.205Z,6.48
2022-11-18T13:48:58.789Z,6.48
2022-11-18T13:51:26.433Z,6.48
2022-11-18T13:53:53.503Z,6.46
2022-11-18T13:56:31.624Z,6.49
2022-11-18T13:59:16.997Z,6.46
2022-11-18T14:01:47.239Z,6.45
2022-11-18T14:04:22.927Z,6.47
2022-11-18T14:06:50.572Z,6.45
2022-11-18T14:09:25.225Z,6.45
2022-11-18T14:12:07.462Z,6.44
2022-11-18T14:14:40.946Z,6.42
2022-11-18T14:17:27.223Z,6.40
2022-11-18T14:19:59.944Z,6.38
2022-11-18T14:22:30.846Z,6.37
2022-11-18T14:25:14.544Z,6.39
2022-11-18T14:27:53.442Z,6.37
2022-11-18T14:30:29.717Z,6.36
2022-11-18T14:33:26.669Z,6.33
2022-11-18T14:36:02.237Z,6.30
2022-11-18T14:39:19.232Z,6.24
2022-11-18T14:41:46.843Z,6.16
2022-11-18T14:44:14.291Z,6.08
2022-11-18T14:46:45.667Z,6.03
2022-11-18T14:49:24.245Z,5.95
2022-11-18T14:51:52.705Z,5.91
2022-11-18T14:54:26.435Z,5.87
2022-11-18T14:57:04.034Z,5.84
2022-11-18T14:59:31.086Z,5.80
2022-11-18T15:01:58.585Z,5.76
2022-11-18T15:04:26.122Z,5.78
2022-11-18T15:06:55.600Z,5.80
2022-11-18T15:09:22.756Z,5.80
2022-11-18T15:11:49.586Z,5.77
2022-11-18T15:14:19.439Z,5.73
2022-11-18T15:16:46.465Z,5.74
2022-11-18T15:19:16.177Z,5.73
2022-11-18T15:21:45.661Z,5.68
2022-11-18T15:24:15.787Z,5.68
2022-11-18T15:26:49.469Z,5.64
2022-11-18T15:29:28.942Z,5.62
2022-11-18T15:32:27.123Z,5.57
2022-11-18T15:34:56.760Z,5.56
2022-11-18T15:37:23.718Z,5.55
2022-11-18T15:39:50.605Z,5.55
2022-11-18T15:42:23.519Z,5.54
2022-11-18T15:44:53.328Z,5.52
2022-11-18T15:47:21.616Z,5.49
2022-11-18T15:49:54.814Z,5.50
2022-11-18T15:52:24.446Z,5.45
2022-11-18T15:54:54.674Z,5.46
2022-11-18T15:57:21.627Z,5.47
2022-11-18T15:59:48.928Z,5.47
2022-11-18T16:02:15.923Z,5.49
2022-11-18T16:04:42.865Z,5.48
2022-11-18T16:07:09.748Z,5.47
2022-11-18T16:09:55.072Z,5.48
2022-11-18T16:12:40.480Z,5.47
2022-11-18T16:15:28.171Z,5.45
2022-11-18T16:17:55.845Z,5.45
2022-11-18T16:20:22.708Z,5.48
2022-11-18T16:22:49.532Z,5.49
2022-11-18T16:25:16.362Z,5.49
2022-11-18T16:27:43.183Z,5.51
2022-11-18T16:30:30.572Z,5.51
2022-11-18T16:32:57.523Z,5.49
2022-11-18T16:35:24.426Z,5.50
2022-11-18T16:37:54.258Z,5.50
2022-11-18T16:40:21.567Z,5.49
2022-11-18T16:42:50.591Z,5.48
2022-11-18T16:45:19.002Z,5.47
2022-11-18T16:47:46.125Z,5.44
2022-11-18T16:50:13.070Z,5.43
2022-11-18T16:52:39.970Z,5.38
2022-11-18T16:55:07.184Z,5.40
2022-11-18T16:57:33.967Z,5.41
2022-11-18T17:00:00.815Z,5.40
2022-11-18T17:02:27.727Z,5.39
2022-11-18T17:04:55.624Z,5.37
2022-11-18T17:07:22.454Z,5.35
2022-11-18T17:09:49.283Z,5.32
2022-11-18T17:12:16.106Z,5.32
2022-11-18T17:14:42.881Z,5.33
2022-11-18T17:17:09.636Z,5.37
2022-11-18T17:19:36.557Z,5.38
2022-11-18T17:22:03.414Z,5.41
2022-11-18T17:24:30.217Z,5.44
2022-11-18T17:26:57.290Z,5.43
2022-11-18T17:29:24.050Z,5.44
2022-11-18T17:31:50.935Z,5.43
2022-11-18T17:34:18.243Z,5.38
2022-11-18T17:36:45.649Z,5.37
2022-11-18T17:39:13.199Z,5.37
2022-11-18T17:41:58.549Z,5.35
2022-11-18T17:44:27.121Z,5.37
2022-11-18T17:46:53.908Z,5.36
2022-11-18T17:49:22.083Z,5.36
2022-11-18T17:51:51.023Z,5.34
2022-11-18T17:54:18.586Z,5.31
2022-11-18T17:56:47.058Z,5.33
2022-11-18T17:59:15.645Z,5.31
2022-11-18T18:01:42.574Z,5.30
2022-11-18T18:04:09.504Z,5.27
2022-11-18T18:06:36.376Z,5.28
2022-11-18T18:09:03.807Z,5.28
2022-11-18T18:11:30.577Z,5.28
2022-11-18T18:14:12.276Z,5.28
2022-11-18T18:16:42.709Z,5.25
2022-11-18T18:19:12.205Z,5.23
2022-11-18T18:21:39.018Z,5.23
2022-11-18T18:24:06.395Z,5.23
2022-11-18T18:26:33.769Z,5.24
2022-11-18T18:29:01.284Z,5.25
2022-11-18T18:31:29.016Z,5.25
2022-11-18T18:33:55.870Z,5.27
2022-11-18T18:36:24.901Z,5.25
2022-11-18T18:38:52.428Z,5.24
2022-11-18T18:41:22.898Z,5.24
2022-11-18T18:43:50.508Z,5.23
2022-11-18T18:46:31.670Z,5.21
2022-11-18T18:49:11.316Z,5.20
2022-11-18T18:51:43.951Z,5.20
2022-11-18T18:54:14.292Z,5.17
2022-11-18T18:56:41.906Z,5.16
2022-11-18T18:59:09.552Z,5.17
2022-11-18T19:01:38.103Z,5.17
2022-11-18T19:04:07.596Z,5.16
2022-11-18T19:09:24.881Z,5.14
2022-11-18T19:12:10.494Z,5.13
2022-11-18T19:14:37.596Z,5.10
2022-11-18T19:17:10.199Z,5.08
2022-11-18T19:20:01.190Z,5.07
2022-11-18T19:22:32.822Z,5.02
2022-11-18T19:25:00.559Z,5.01
2022-11-18T19:27:27.919Z,4.98
2022-11-18T19:29:54.767Z,4.93
2022-11-18T19:32:21.821Z,4.92
2022-11-18T19:34:48.621Z,4.88
2022-11-18T19:37:15.456Z,4.84
2022-11-18T19:39:42.263Z,4.80
2022-11-18T19:42:10.679Z,4.76
2022-11-18T19:44:38.059Z,4.73
2022-11-18T19:47:05.013Z,4.71
2022-11-18T19:49:31.800Z,4.69
2022-11-18T19:51:58.564Z,4.67
2022-11-18T19:54:25.360Z,4.64
2022-11-18T19:56:52.121Z,4.62
2022-11-18T19:59:19.101Z,4.59
2022-11-18T20:01:46.127Z,4.56
2022-11-18T20:04:12.940Z,4.54
2022-11-18T20:06:40.344Z,4.50
2022-11-18T20:09:09.443Z,4.47
2022-11-18T20:11:36.406Z,4.42
2022-11-18T20:14:03.271Z,4.40
2022-11-18T20:16:30.499Z,4.37
2022-11-18T20:19:06.355Z,4.34
2022-11-18T20:21:34.774Z,4.32
2022-11-18T20:24:04.322Z,4.30
2022-11-18T20:26:39.459Z,4.29
2022-11-18T20:29:08.280Z,4.26
2022-11-18T20:31:36.639Z,4.26
2022-11-18T20:34:04.986Z,4.23
2022-11-18T20:36:36.738Z,4.22
2022-11-18T20:39:07.958Z,4.20
2022-11-18T20:41:36.168Z,4.17
2022-11-18T20:44:03.165Z,4.16
2022-11-18T20:46:29.919Z,4.15
2022-11-18T20:48:56.969Z,4.14
2022-11-18T20:51:26.776Z,4.12
2022-11-18T20:53:55.930Z,4.12
2022-11-18T20:56:25.695Z,4.11
2022-11-18T20:58:52.788Z,4.09
2022-11-18T21:01:25.788Z,4.08
2022-11-18T21:03:56.353Z,4.06
2022-11-18T21:06:29.121Z,4.05
2022-11-18T21:08:58.736Z,4.03
2022-11-18T21:11:26.841Z,4.01
2022-11-18T21:14:12.506Z,4.00
2022-11-18T21:16:41.182Z,3.97
2022-11-18T21:19:08.773Z,3.96
2022-11-18T21:21:44.943Z,3.94
2022-11-18T21:24:18.415Z,3.94
2022-11-18T21:26:50.347Z,3.91
2022-11-18T21:29:18.436Z,3.92
2022-11-18T21:31:46.926Z,3.91
2022-11-18T21:34:15.283Z,3.89
2022-11-18T21:36:46.747Z,3.89
2022-11-18T21:39:16.429Z,3.88
2022-11-18T21:41:44.086Z,3.87
2022-11-18T21:44:13.229Z,3.86
2022-11-18T21:46:42.035Z,3.86
2022-11-18T21:49:08.975Z,3.84
2022-11-18T21:51:36.712Z,3.84
2022-11-18T21:54:03.787Z,3.82
2022-11-18T21:56:31.676Z,3.84
2022-11-18T21:59:02.596Z,3.81
2022-11-18T22:01:32.423Z,3.81
2022-11-18T22:04:02.453Z,3.79
2022-11-18T22:06:33.251Z,3.77
2022-11-18T22:09:01.310Z,3.76
2022-11-18T22:11:28.361Z,3.74
2022-11-18T22:13:55.409Z,3.74
2022-11-18T22:16:24.792Z,3.72
2022-11-18T22:18:59.270Z,3.69
2022-11-18T22:21:29.972Z,3.66
2022-11-18T22:23:59.615Z,3.63
2022-11-18T22:26:26.756Z,3.58
2022-11-18T22:28:57.523Z,3.55
2022-11-18T22:31:26.761Z,3.53
2022-11-18T22:33:55.445Z,3.49
2022-11-18T22:36:24.769Z,3.45
2022-11-18T22:38:51.696Z,3.41
2022-11-18T22:41:45.425Z,3.40
2022-11-18T22:44:14.760Z,3.36
2022-11-18T22:46:44.133Z,3.33
2022-11-18T22:49:12.316Z,3.30
2022-11-18T22:51:40.133Z,3.28
2022-11-18T22:54:37.227Z,3.26
2022-11-18T22:56:54.939Z,3.24
2022-11-18T22:59:22.505Z,3.21
2022-11-18T23:01:51.470Z,3.19
2022-11-18T23:04:18.829Z,3.17
2022-11-18T23:06:45.609Z,3.15
2022-11-18T23:09:12.460Z,3.13
2022-11-18T23:11:57.527Z,3.10
2022-11-18T23:14:24.364Z,3.06
2022-11-18T23:16:51.197Z,3.06
2022-11-18T23:19:18.377Z,3.04
2022-11-18T23:21:46.068Z,3.02
2022-11-18T23:24:15.358Z,2.99
2022-11-18T23:26:43.109Z,2.99
2022-11-18T23:29:11.942Z,2.99
2022-11-18T23:31:42.854Z,2.96
2022-11-18T23:34:12.087Z,2.95
2022-11-18T23:36:39.394Z,2.92
2022-11-18T23:39:06.342Z,2.92
2022-11-18T23:41:33.148Z,2.90
2022-11-18T23:43:59.933Z,2.88
2022-11-18T23:46:27.573Z,2.87
2022-11-18T23:48:54.819Z,2.85
2022-11-18T23:51:23.823Z,2.83
2022-11-18T23:53:56.361Z,2.82
2022-11-18T23:56:26.619Z,2.81
2022-11-18T23:58:56.559Z,2.79
